createdAt,value
2023-02-11T00:01:24.130Z,40.27
2023-02-11T00:03:52.446Z,39.53
2023-02-11T00:06:20.952Z,39.95
2023-02-11T00:08:49.081Z,38.03
2023-02-11T00:11:19.951Z,37.28
2023-02-11T00:13:49.198Z,39.83
2023-02-11T00:16:19.105Z,40.72
2023-02-11T00:18:50.508Z,41.10
2023-02-11T00:21:21.012Z,38.53
2023-02-11T00:23:49.294Z,41.85
2023-02-11T00:26:19.557Z,43.43
2023-02-11T00:28:49.441Z,44.00
2023-02-11T00:31:22.578Z,40.67
2023-02-11T00:33:52.648Z,40.05
2023-02-11T00:36:22.941Z,41.00
2023-02-11T00:38:52.025Z,40.87
2023-02-11T00:41:21.740Z,41.67
2023-02-11T00:43:50.446Z,43.75
2023-02-11T00:46:20.891Z,41.22
2023-02-11T00:48:49.170Z,42.53
2023-02-11T00:51:18.979Z,40.90
2023-02-11T00:53:47.088Z,38.95
2023-02-11T00:56:15.508Z,42.80
2023-02-11T00:58:43.620Z,38.83
2023-02-11T01:01:13.313Z,44.83
2023-02-11T01:03:42.025Z,42.33
2023-02-11T01:06:11.314Z,40.28
2023-02-11T01:08:40.938Z,43.40
2023-02-11T01:11:15.038Z,42.35
2023-02-11T01:13:46.668Z,41.42
2023-02-11T01:16:15.511Z,42.07
2023-02-11T01:18:44.303Z,40.15
2023-02-11T01:21:12.962Z,41.33
2023-02-11T01:23:42.493Z,41.30
2023-02-11T01:26:13.758Z,44.00
2023-02-11T01:28:41.870Z,39.43
2023-02-11T01:31:10.320Z,42.00
2023-02-11T01:33:38.513Z,46.50
2023-02-11T01:36:08.895Z,40.03
2023-02-11T01:38:37.198Z,42.75
2023-02-11T01:41:08.726Z,42.70
2023-02-11T01:43:39.023Z,42.75
2023-02-11T01:46:30.912Z,40.05
2023-02-11T01:49:03.384Z,38.65
2023-02-11T01:51:35.505Z,38.45
2023-02-11T01:54:23.303Z,38.20
2023-02-11T01:57:13.875Z,44.28
2023-02-11T01:59:45.679Z,41.90
2023-02-11T02:02:16.530Z,42.55
2023-02-11T02:04:50.451Z,44.80
2023-02-11T02:07:26.532Z,41.73
2023-02-11T02:10:00.726Z,39.40
2023-02-11T02:12:30.732Z,38.40
2023-02-11T02:15:35.889Z,45.70
2023-02-11T02:18:13.044Z,43.85
2023-02-11T02:21:11.869Z,39.50
2023-02-11T02:23:57.442Z,39.10
2023-02-11T02:26:53.070Z,37.97
2023-02-11T02:29:42.182Z,38.45
2023-02-11T02:32:33.317Z,45.78
2023-02-11T02:35:06.932Z,42.87
2023-02-11T02:37:38.696Z,42.05
2023-02-11T02:40:11.385Z,41.05
2023-02-11T02:42:40.858Z,40.88
2023-02-11T02:45:10.766Z,42.95
2023-02-11T02:47:40.382Z,40.97
2023-02-11T02:50:09.802Z,45.42
2023-02-11T02:52:44.448Z,41.95
2023-02-11T02:55:23.632Z,42.60
2023-02-11T02:58:14.733Z,40.80
2023-02-11T03:00:49.703Z,39.63
2023-02-11T03:03:26.782Z,40.42
2023-02-11T03:05:58.441Z,41.03
2023-02-11T03:08:31.172Z,40.28
2023-02-11T03:11:00.288Z,38.22
2023-02-11T03:13:33.829Z,37.53
2023-02-11T03:16:06.245Z,41.50
2023-02-11T03:18:37.272Z,37.55
2023-02-11T03:21:06.602Z,41.55
2023-02-11T03:23:38.548Z,38.92
2023-02-11T03:26:11.915Z,38.47
2023-02-11T03:28:44.038Z,38.47
2023-02-11T03:31:18.681Z,40.65
2023-02-11T03:33:53.345Z,38.10
2023-02-11T03:36:25.471Z,40.60
2023-02-11T03:38:58.163Z,43.13
2023-02-11T03:41:26.761Z,39.53
2023-02-11T03:43:57.602Z,42.47
2023-02-11T03:46:30.173Z,40.72
2023-02-11T03:49:03.486Z,43.67
2023-02-11T03:51:32.950Z,40.30
2023-02-11T03:54:03.842Z,37.28
2023-02-11T03:56:36.770Z,40.75
2023-02-11T03:59:04.912Z,43.90
2023-02-11T04:01:33.384Z,39.97
2023-02-11T04:04:02.884Z,45.90
2023-02-11T04:06:31.212Z,38.20
2023-02-11T04:08:59.271Z,36.80
2023-02-11T04:11:27.673Z,38.72
2023-02-11T04:13:56.071Z,44.00
2023-02-11T04:16:24.888Z,43.10
2023-02-11T04:18:53.099Z,38.72
2023-02-11T04:21:22.793Z,41.10
2023-02-11T04:23:50.881Z,40.65
2023-02-11T04:26:19.210Z,42.85
2023-02-11T04:28:47.281Z,45.87
2023-02-11T04:31:16.068Z,41.95
2023-02-11T04:33:44.528Z,40.83
2023-02-11T04:36:13.854Z,63.70
2023-02-11T04:38:43.385Z,41.55
2023-02-11T04:41:11.775Z,39.80
2023-02-11T04:43:39.855Z,44.40
2023-02-11T04:46:08.663Z,40.13
2023-02-11T04:48:36.878Z,39.50
2023-02-11T04:51:05.763Z,39.53
2023-02-11T04:53:33.862Z,38.37
2023-02-11T04:56:03.665Z,40.63
2023-02-11T04:58:31.823Z,42.55
2023-02-11T05:01:06.896Z,37.92
2023-02-11T05:03:35.465Z,39.75
2023-02-11T05:06:04.235Z,38.73
2023-02-11T05:08:32.938Z,40.85
2023-02-11T05:11:03.193Z,42.15
2023-02-11T05:13:31.664Z,40.30
2023-02-11T05:16:00.611Z,38.25
2023-02-11T05:18:28.911Z,39.37
2023-02-11T05:20:57.573Z,37.22
2023-02-11T05:23:25.785Z,43.05
2023-02-11T05:25:54.497Z,42.40
2023-02-11T05:28:24.093Z,44.42
2023-02-11T05:30:52.611Z,39.37
2023-02-11T05:33:20.938Z,39.58
2023-02-11T05:35:49.997Z,40.78
2023-02-11T05:38:18.441Z,38.95
2023-02-11T05:40:46.834Z,41.10
2023-02-11T05:43:14.911Z,40.33
2023-02-11T05:45:44.701Z,38.65
2023-02-11T05:48:12.803Z,39.00
2023-02-11T05:50:42.234Z,38.78
2023-02-11T05:53:10.349Z,43.50
2023-02-11T05:55:39.246Z,40.13
2023-02-11T05:58:08.158Z,41.83
2023-02-11T06:00:37.053Z,39.58
2023-02-11T06:03:06.763Z,42.38
2023-02-11T06:05:35.893Z,48.58
2023-02-11T06:08:04.054Z,38.17
2023-02-11T06:10:32.506Z,38.05
2023-02-11T06:13:00.612Z,41.03
2023-02-11T06:15:29.138Z,40.92
2023-02-11T06:17:57.699Z,40.67
2023-02-11T06:20:27.423Z,37.70
2023-02-11T06:22:55.760Z,38.15
2023-02-11T06:25:24.230Z,36.55
2023-02-11T06:27:52.648Z,40.00
2023-02-11T06:30:21.308Z,38.63
2023-02-11T06:32:49.534Z,39.07
2023-02-11T06:35:18.220Z,39.50
2023-02-11T06:37:49.609Z,42.30
2023-02-11T06:40:18.201Z,37.83
2023-02-11T06:42:46.439Z,37.03
2023-02-11T06:45:14.966Z,36.10
2023-02-11T06:47:43.155Z,38.33
2023-02-11T06:50:14.509Z,35.95
2023-02-11T06:52:42.615Z,38.30
2023-02-11T06:55:12.414Z,38.92
2023-02-11T06:57:40.631Z,40.33
2023-02-11T07:00:10.335Z,35.00
2023-02-11T07:02:38.498Z,37.85
2023-02-11T07:05:07.746Z,39.38
2023-02-11T07:07:35.869Z,40.72
2023-02-11T07:10:05.797Z,39.60
2023-02-11T07:12:35.351Z,35.95
2023-02-11T07:15:06.220Z,37.40
2023-02-11T07:17:35.415Z,38.85
2023-02-11T07:20:04.253Z,40.33
2023-02-11T07:22:32.383Z,37.57
2023-02-11T07:25:00.701Z,39.33
2023-02-11T07:27:28.831Z,39.28
2023-02-11T07:29:58.601Z,33.40
2023-02-11T07:32:26.832Z,38.95
2023-02-11T07:34:55.696Z,37.37
2023-02-11T07:37:23.909Z,39.83
2023-02-11T07:39:52.745Z,35.45
2023-02-11T07:42:20.854Z,36.97
2023-02-11T07:44:50.624Z,37.05
2023-02-11T07:47:20.413Z,41.83
2023-02-11T07:49:48.789Z,36.92
2023-02-11T07:52:17.087Z,39.58
2023-02-11T07:54:46.380Z,42.05
2023-02-11T07:57:14.573Z,41.22
2023-02-11T07:59:43.053Z,41.37
2023-02-11T08:02:11.303Z,41.60
2023-02-11T08:04:41.447Z,41.00
2023-02-11T08:07:09.592Z,38.00
2023-02-11T08:09:38.023Z,40.05
2023-02-11T08:12:06.552Z,40.73
2023-02-11T08:14:35.001Z,41.22
2023-02-11T08:17:03.095Z,40.53
2023-02-11T08:19:34.841Z,40.10
2023-02-11T08:22:04.859Z,37.33
2023-02-11T08:24:33.342Z,38.17
2023-02-11T08:27:01.526Z,38.53
2023-02-11T08:29:29.880Z,37.80
2023-02-11T08:31:58.002Z,38.88
2023-02-11T08:34:26.440Z,37.17
2023-02-11T08:36:54.958Z,36.60
2023-02-11T08:39:24.775Z,40.83
2023-02-11T08:41:56.499Z,35.65
2023-02-11T08:44:25.453Z,37.78
2023-02-11T08:46:54.819Z,37.53
2023-02-11T08:49:23.376Z,41.07
2023-02-11T08:51:51.883Z,38.47
2023-02-11T08:54:20.489Z,37.28
2023-02-11T08:56:52.234Z,37.58
2023-02-11T08:59:20.676Z,35.60
2023-02-11T09:01:48.969Z,38.37
2023-02-11T09:04:17.798Z,36.55
2023-02-11T09:06:46.257Z,38.75
2023-02-11T09:09:16.017Z,36.03
2023-02-11T09:11:45.123Z,36.10
2023-02-11T09:14:19.407Z,37.23
2023-02-11T09:16:48.054Z,40.58
2023-02-11T09:19:16.674Z,37.10
2023-02-11T09:21:44.852Z,36.13
2023-02-11T09:24:13.699Z,40.53
2023-02-11T09:26:43.126Z,35.07
2023-02-11T09:29:11.541Z,40.28
2023-02-11T09:31:41.096Z,38.33
2023-02-11T09:34:10.572Z,36.72
2023-02-11T09:36:40.318Z,37.40
2023-02-11T09:39:12.327Z,37.80
2023-02-11T09:41:48.086Z,34.72
2023-02-11T09:44:20.100Z,39.47
2023-02-11T09:46:54.842Z,35.10
2023-02-11T09:49:28.250Z,32.88
2023-02-11T09:51:59.971Z,35.90
2023-02-11T09:54:31.886Z,34.03
2023-02-11T09:57:00.046Z,32.55
2023-02-11T09:59:28.620Z,36.33
2023-02-11T10:02:00.285Z,32.42
2023-02-11T10:04:45.773Z,34.77
2023-02-11T10:07:19.959Z,34.33
2023-02-11T10:09:58.147Z,34.08
2023-02-11T10:12:34.970Z,32.17
2023-02-11T10:15:13.673Z,30.45
2023-02-11T10:17:53.759Z,32.63
2023-02-11T10:20:29.140Z,31.05
2023-02-11T10:23:01.013Z,31.10
2023-02-11T10:25:35.217Z,33.05
2023-02-11T10:28:12.883Z,31.67
2023-02-11T10:30:44.222Z,29.53
2023-02-11T10:33:20.745Z,33.28
2023-02-11T10:35:49.594Z,30.15
2023-02-11T10:38:17.954Z,32.53
2023-02-11T10:40:47.478Z,32.45
2023-02-11T10:43:17.948Z,30.23
2023-02-11T10:45:48.981Z,31.08
2023-02-11T10:48:42.254Z,32.67
2023-02-11T10:51:23.512Z,33.55
2023-02-11T10:53:53.675Z,35.15
2023-02-11T10:56:25.559Z,31.67
2023-02-11T10:58:59.426Z,28.55
2023-02-11T11:01:42.224Z,30.52
2023-02-11T11:04:33.659Z,31.10
2023-02-11T11:07:12.188Z,27.55
2023-02-11T11:09:46.313Z,32.23
2023-02-11T11:12:26.947Z,28.38
2023-02-11T11:14:56.571Z,27.27
2023-02-11T11:17:29.108Z,29.73
2023-02-11T11:20:35.403Z,30.40
2023-02-11T11:23:15.201Z,28.27
2023-02-11T11:25:46.091Z,28.88
2023-02-11T11:28:23.638Z,29.35
2023-02-11T11:30:56.087Z,32.42
2023-02-11T11:33:27.173Z,26.27
2023-02-11T11:36:01.031Z,29.03
2023-02-11T11:38:30.613Z,32.03
2023-02-11T11:41:23.793Z,27.48
2023-02-11T11:44:03.596Z,26.75
2023-02-11T11:46:35.220Z,25.75
2023-02-11T11:49:13.544Z,28.83
2023-02-11T11:51:45.975Z,26.27
2023-02-11T11:54:16.933Z,29.20
2023-02-11T11:56:52.333Z,27.33
2023-02-11T11:59:20.885Z,29.67
2023-02-11T12:02:10.055Z,26.80
2023-02-11T12:04:47.732Z,26.20
2023-02-11T12:07:26.719Z,26.42
2023-02-11T12:10:13.281Z,25.80
2023-02-11T12:12:46.983Z,23.50
2023-02-11T12:15:26.583Z,25.13
2023-02-11T12:18:06.887Z,25.70
2023-02-11T12:20:41.524Z,27.27
2023-02-11T12:23:28.272Z,25.23
2023-02-11T12:26:02.671Z,27.45
2023-02-11T12:28:39.122Z,26.03
2023-02-11T12:31:21.021Z,24.40
2023-02-11T12:34:01.725Z,24.33
2023-02-11T12:36:43.383Z,26.00
2023-02-11T12:39:21.766Z,24.45
2023-02-11T12:42:21.133Z,23.80
2023-02-11T12:44:59.588Z,22.45
2023-02-11T12:47:34.668Z,27.23
2023-02-11T12:50:15.188Z,25.58
2023-02-11T12:53:18.259Z,22.83
2023-02-11T12:55:51.373Z,26.13
2023-02-11T12:58:35.599Z,24.73
2023-02-11T13:01:10.104Z,24.48
2023-02-11T13:03:41.614Z,27.83
2023-02-11T13:06:12.928Z,27.80
2023-02-11T13:08:45.102Z,26.63
2023-02-11T13:11:18.634Z,41.47
2023-02-11T13:13:53.960Z,35.00
2023-02-11T13:16:33.535Z,29.17
2023-02-11T13:19:05.115Z,25.08
2023-02-11T13:21:40.187Z,27.60
2023-02-11T13:24:21.268Z,29.33
2023-02-11T13:27:00.173Z,29.48
2023-02-11T13:29:34.796Z,28.83
2023-02-11T13:32:11.655Z,29.45
2023-02-11T13:35:17.245Z,34.33
2023-02-11T13:37:48.659Z,32.35
2023-02-11T13:40:24.240Z,45.00
2023-02-11T13:42:56.268Z,72.00
2023-02-11T13:45:30.599Z,40.10
2023-02-11T13:48:00.009Z,35.00
2023-02-11T13:50:29.327Z,32.67
2023-02-11T13:53:02.678Z,32.92
2023-02-11T13:55:31.694Z,31.90
2023-02-11T13:58:23.689Z,36.75
2023-02-11T14:00:52.828Z,36.90
2023-02-11T14:04:04.484Z,29.40
2023-02-11T14:07:01.872Z,38.78
2023-02-11T14:09:42.149Z,33.67
2023-02-11T14:12:35.124Z,30.15
2023-02-11T14:15:23.303Z,29.10
2023-02-11T14:17:52.420Z,58.40
2023-02-11T14:20:39.458Z,30.48
2023-02-11T14:23:08.163Z,34.50
2023-02-11T14:25:37.073Z,30.95
2023-02-11T14:28:11.195Z,27.87
2023-02-11T14:30:47.946Z,32.90
2023-02-11T14:33:39.480Z,28.05
2023-02-11T14:36:20.159Z,29.05
2023-02-11T14:38:57.771Z,28.80
2023-02-11T14:41:27.755Z,28.07
2023-02-11T14:43:57.897Z,28.38
2023-02-11T14:46:29.911Z,19.30
2023-02-11T14:48:59.985Z,24.67
2023-02-11T14:51:31.389Z,19.98
2023-02-11T14:54:03.879Z,19.80
2023-02-11T14:56:34.377Z,30.17
2023-02-11T14:59:03.620Z,27.95
2023-02-11T15:01:35.489Z,23.45
2023-02-11T15:04:06.068Z,24.40
2023-02-11T15:06:37.306Z,24.20
2023-02-11T15:09:07.840Z,22.63
2023-02-11T15:11:40.876Z,24.33
2023-02-11T15:14:11.705Z,26.17
2023-02-11T15:16:44.545Z,35.15
2023-02-11T15:19:21.753Z,27.83
2023-02-11T15:21:50.681Z,25.92
2023-02-11T15:24:25.425Z,24.70
2023-02-11T15:26:58.190Z,22.02
2023-02-11T15:29:27.489Z,23.52
2023-02-11T15:32:08.134Z,24.07
2023-02-11T15:34:37.163Z,21.42
2023-02-11T15:37:05.473Z,22.13
2023-02-11T15:39:36.543Z,23.48
2023-02-11T15:42:22.532Z,23.10
2023-02-11T15:45:08.111Z,24.47
2023-02-11T15:47:37.730Z,24.75
2023-02-11T15:50:07.356Z,26.38
2023-02-11T15:52:35.808Z,27.77
2023-02-11T15:55:04.877Z,25.10
2023-02-11T15:57:36.000Z,27.40
2023-02-11T16:00:08.004Z,28.08
2023-02-11T16:02:45.378Z,28.15
2023-02-11T16:05:34.186Z,31.30
2023-02-11T16:08:19.298Z,36.40
2023-02-11T16:11:01.445Z,30.77
2023-02-11T16:13:34.557Z,29.02
2023-02-11T16:16:06.531Z,31.17
2023-02-11T16:18:40.058Z,28.25
2023-02-11T16:21:18.662Z,29.33
2023-02-11T16:24:01.705Z,27.90
2023-02-11T16:26:34.316Z,34.63
2023-02-11T16:29:07.080Z,29.52
2023-02-11T16:31:39.815Z,30.80
2023-02-11T16:34:18.842Z,29.27
2023-02-11T16:36:48.548Z,30.47
2023-02-11T16:39:17.887Z,30.75
2023-02-11T16:41:46.442Z,29.00
2023-02-11T16:44:15.031Z,29.25
2023-02-11T16:46:44.384Z,31.58
2023-02-11T16:49:18.746Z,32.97
2023-02-11T16:51:49.885Z,30.05
2023-02-11T16:54:19.512Z,31.25
2023-02-11T16:56:48.617Z,40.50
2023-02-11T16:59:17.139Z,57.88
2023-02-11T17:01:46.234Z,116.57
2023-02-11T17:04:20.991Z,131.68
2023-02-11T17:06:50.470Z,79.28
2023-02-11T17:09:20.750Z,48.97
2023-02-11T17:11:49.578Z,38.30
2023-02-11T17:14:18.139Z,39.70
2023-02-11T17:16:47.777Z,38.92
2023-02-11T17:19:18.697Z,40.38
2023-02-11T17:21:49.980Z,44.15
2023-02-11T17:24:18.787Z,47.45
2023-02-11T17:26:47.431Z,41.00
2023-02-11T17:29:17.545Z,36.65
2023-02-11T17:31:46.352Z,36.75
2023-02-11T17:34:14.922Z,32.38
2023-02-11T17:36:43.443Z,32.92
2023-02-11T17:39:13.652Z,32.67
2023-02-11T17:41:42.740Z,30.27
2023-02-11T17:44:12.223Z,32.92
2023-02-11T17:46:41.082Z,28.38
2023-02-11T17:49:09.278Z,30.80
2023-02-11T17:51:38.890Z,31.60
2023-02-11T17:54:09.663Z,29.48
2023-02-11T17:56:39.831Z,31.42
2023-02-11T17:59:09.375Z,28.60
2023-02-11T18:01:39.454Z,29.52
2023-02-11T18:04:09.458Z,31.53
2023-02-11T18:06:37.927Z,34.13
2023-02-11T18:09:07.312Z,32.03
2023-02-11T18:11:39.898Z,34.63
2023-02-11T18:14:09.301Z,32.80
2023-02-11T18:16:39.463Z,31.67
2023-02-11T18:19:08.492Z,33.70
2023-02-11T18:21:37.597Z,32.78
2023-02-11T18:24:07.223Z,34.92
2023-02-11T18:26:36.427Z,31.48
2023-02-11T18:29:06.953Z,32.70
2023-02-11T18:31:36.309Z,34.35
2023-02-11T18:34:05.506Z,40.92
2023-02-11T18:36:34.304Z,49.30
2023-02-11T18:39:02.428Z,42.70
2023-02-11T18:41:30.844Z,40.50
2023-02-11T18:44:03.431Z,42.22
2023-02-11T18:46:34.419Z,36.97
2023-02-11T18:49:02.727Z,34.00
2023-02-11T18:51:32.566Z,33.40
2023-02-11T18:54:01.197Z,32.20
2023-02-11T18:56:29.676Z,31.02
2023-02-11T18:59:01.070Z,34.38
2023-02-11T19:01:31.141Z,30.67
2023-02-11T19:04:03.207Z,34.85
2023-02-11T19:06:33.602Z,36.60
2023-02-11T19:09:03.311Z,37.63
2023-02-11T19:11:49.806Z,33.00
2023-02-11T19:14:23.364Z,32.60
2023-02-11T19:16:54.051Z,36.33
2023-02-11T19:19:24.853Z,34.43
2023-02-11T19:21:53.449Z,35.50
2023-02-11T19:24:22.853Z,47.22
2023-02-11T19:26:52.305Z,45.97
2023-02-11T19:29:20.523Z,41.78
2023-02-11T19:31:49.946Z,45.40
2023-02-11T19:34:19.901Z,43.33
2023-02-11T19:36:50.700Z,40.95
2023-02-11T19:39:19.421Z,44.67
2023-02-11T19:41:47.762Z,43.38
2023-02-11T19:44:16.860Z,41.27
2023-02-11T19:46:46.322Z,47.53
2023-02-11T19:49:16.310Z,46.10
2023-02-11T19:51:44.761Z,45.42
2023-02-11T19:54:14.686Z,47.83
2023-02-11T19:56:44.699Z,42.63
2023-02-11T19:59:13.914Z,41.70
2023-02-11T20:01:42.735Z,39.63
2023-02-11T20:04:10.887Z,37.58
2023-02-11T20:06:39.441Z,35.92
2023-02-11T20:09:10.031Z,38.07
2023-02-11T20:11:40.708Z,37.53
2023-02-11T20:14:10.514Z,39.10
2023-02-11T20:16:47.986Z,37.15
2023-02-11T20:19:21.902Z,40.42
2023-02-11T20:21:53.421Z,35.10
2023-02-11T20:24:21.670Z,39.55
2023-02-11T20:26:55.739Z,37.10
2023-02-11T20:29:25.156Z,35.42
2023-02-11T20:31:55.096Z,38.30
2023-02-11T20:34:24.826Z,39.77
2023-02-11T20:36:54.139Z,35.95
2023-02-11T20:39:22.774Z,33.95
2023-02-11T20:41:53.601Z,34.08
2023-02-11T20:44:22.740Z,35.67
2023-02-11T20:46:54.011Z,38.50
2023-02-11T20:49:23.751Z,36.35
2023-02-11T20:51:53.625Z,33.72
2023-02-11T20:54:23.366Z,33.35
2023-02-11T20:56:55.273Z,35.50
2023-02-11T20:59:25.707Z,36.80
2023-02-11T21:02:01.670Z,35.75
2023-02-11T21:04:32.611Z,34.50
2023-02-11T21:07:03.004Z,34.33
2023-02-11T21:09:33.418Z,38.08
2023-02-11T21:12:04.006Z,35.03
2023-02-11T21:14:32.408Z,36.63
2023-02-11T21:17:00.854Z,32.88
2023-02-11T21:19:29.376Z,36.05
2023-02-11T21:22:00.501Z,34.42
2023-02-11T21:24:30.658Z,31.23
2023-02-11T21:26:59.174Z,34.08
2023-02-11T21:29:28.592Z,31.50
2023-02-11T21:31:57.259Z,34.00
2023-02-11T21:34:25.438Z,33.20
2023-02-11T21:36:53.803Z,34.93
2023-02-11T21:39:22.324Z,32.00
2023-02-11T21:41:51.701Z,32.40
2023-02-11T21:44:20.979Z,33.83
2023-02-11T21:46:50.907Z,33.10
2023-02-11T21:49:19.646Z,29.67
2023-02-11T21:51:48.428Z,28.38
2023-02-11T21:54:18.654Z,30.77
2023-02-11T21:56:47.224Z,30.70
2023-02-11T21:59:16.325Z,27.92
2023-02-11T22:01:46.390Z,30.70
2023-02-11T22:04:17.425Z,32.03
2023-02-11T22:06:45.900Z,27.85
2023-02-11T22:09:14.011Z,27.58
2023-02-11T22:11:42.584Z,27.10
2023-02-11T22:14:10.903Z,28.37
2023-02-11T22:16:39.380Z,26.15
2023-02-11T22:19:08.091Z,24.23
2023-02-11T22:21:38.222Z,24.88
2023-02-11T22:24:07.216Z,21.60
2023-02-11T22:26:35.886Z,22.70
2023-02-11T22:29:04.389Z,25.63
2023-02-11T22:31:34.924Z,25.70
2023-02-11T22:34:03.946Z,24.98
2023-02-11T22:36:34.533Z,26.08
2023-02-11T22:39:05.972Z,24.93
2023-02-11T22:41:34.773Z,25.88
2023-02-11T22:44:02.924Z,24.40
2023-02-11T22:46:31.308Z,24.52
2023-02-11T22:48:59.553Z,26.85
2023-02-11T22:51:29.835Z,27.50
2023-02-11T22:53:59.958Z,27.75
2023-02-11T22:56:31.007Z,27.33
2023-02-11T22:58:59.578Z,28.05
2023-02-11T23:01:28.125Z,30.83
2023-02-11T23:03:56.407Z,26.57
2023-02-11T23:06:24.946Z,30.75
2023-02-11T23:08:53.172Z,31.45
2023-02-11T23:11:23.660Z,31.23
2023-02-11T23:13:54.131Z,29.33
2023-02-11T23:16:24.658Z,33.80
2023-02-11T23:18:53.522Z,30.77
2023-02-11T23:21:24.666Z,30.95
2023-02-11T23:23:56.089Z,30.40
2023-02-11T23:26:24.853Z,27.88
2023-02-11T23:28:54.877Z,29.83
2023-02-11T23:31:25.702Z,28.98
2023-02-11T23:33:53.958Z,29.35
2023-02-11T23:36:23.349Z,31.63
2023-02-11T23:38:52.377Z,32.92
2023-02-11T23:41:21.761Z,29.93
2023-02-11T23:43:51.210Z,27.88
2023-02-11T23:46:21.727Z,29.08
2023-02-11T23:48:50.452Z,30.42
2023-02-11T23:51:19.484Z,34.10
2023-02-11T23:53:49.175Z,29.07
2023-02-11T23:56:20.663Z,28.98
2023-02-11T23:58:49.497Z,31.48
